createdAt,value
2017-11-13T00:00:34.425Z,2.30
2017-11-13T00:03:03.208Z,2.30
2017-11-13T00:05:31.965Z,2.40
2017-11-13T00:08:00.698Z,2.40
2017-11-13T00:10:29.734Z,2.40
2017-11-13T00:12:59.240Z,2.40
2017-11-13T00:15:28.900Z,2.40
2017-11-13T00:17:57.661Z,2.40
2017-11-13T00:20:26.397Z,2.40
2017-11-13T00:22:55.223Z,2.30
2017-11-13T00:25:24.828Z,2.40
2017-11-13T00:27:54.327Z,2.40
2017-11-13T00:30:23.892Z,2.40
2017-11-13T00:32:52.624Z,2.40
2017-11-13T00:35:22.136Z,2.50
2017-11-13T00:37:51.143Z,2.40
2017-11-13T00:40:20.633Z,2.50
2017-11-13T00:42:50.157Z,2.40
2017-11-13T00:45:18.961Z,2.40
2017-11-13T00:47:47.693Z,2.50
2017-11-13T00:50:16.420Z,2.40
2017-11-13T00:52:45.181Z,2.30
2017-11-13T00:55:13.907Z,2.40
2017-11-13T00:57:42.659Z,2.40
2017-11-13T01:00:10.700Z,2.40
2017-11-13T01:02:39.428Z,2.40
2017-11-13T01:05:08.165Z,2.30
2017-11-13T01:07:36.887Z,2.30
2017-11-13T01:10:05.620Z,2.40
2017-11-13T01:12:34.368Z,2.40
2017-11-13T01:15:03.138Z,2.40
2017-11-13T01:17:31.873Z,2.40
2017-11-13T01:20:01.397Z,2.40
2017-11-13T01:22:30.121Z,2.40
2017-11-13T01:24:58.853Z,2.40
2017-11-13T01:27:27.599Z,2.40
2017-11-13T01:29:56.329Z,2.40
2017-11-13T01:32:25.845Z,2.40
2017-11-13T01:34:54.868Z,2.40
2017-11-13T01:37:23.610Z,2.30
2017-11-13T01:39:52.748Z,2.40
2017-11-13T01:42:21.634Z,2.30
2017-11-13T01:44:50.377Z,2.40
2017-11-13T01:47:18.789Z,2.40
2017-11-13T01:49:47.531Z,2.40
2017-11-13T01:52:16.269Z,2.40
2017-11-13T01:54:45.033Z,2.50
2017-11-13T01:57:14.348Z,2.40
2017-11-13T01:59:43.857Z,2.50
2017-11-13T02:02:13.347Z,2.50
2017-11-13T02:04:43.020Z,2.50
2017-11-13T02:07:11.121Z,2.40
2017-11-13T02:09:39.514Z,2.50
2017-11-13T02:12:08.267Z,2.50
2017-11-13T02:14:36.648Z,2.50
2017-11-13T02:17:05.216Z,2.50
2017-11-13T02:19:33.277Z,2.60
2017-11-13T02:22:01.320Z,2.60
2017-11-13T02:24:30.492Z,2.60
2017-11-13T02:26:58.537Z,2.50
2017-11-13T02:29:26.562Z,2.60
2017-11-13T02:31:55.386Z,2.60
2017-11-13T02:34:23.467Z,2.50
2017-11-13T02:36:51.569Z,2.60
2017-11-13T02:39:19.612Z,2.50
2017-11-13T02:41:47.668Z,2.60
2017-11-13T02:44:15.700Z,2.60
2017-11-13T02:46:43.795Z,2.60
2017-11-13T02:49:12.984Z,2.60
2017-11-13T02:51:41.653Z,2.60
2017-11-13T02:54:09.703Z,2.60
2017-11-13T02:56:37.731Z,2.60
2017-11-13T02:59:05.770Z,2.60
2017-11-13T03:01:34.506Z,2.60
2017-11-13T03:04:03.264Z,2.60
2017-11-13T03:06:32.763Z,2.60
2017-11-13T03:09:02.285Z,2.60
2017-11-13T03:11:31.836Z,2.60
2017-11-13T03:14:00.594Z,2.50
2017-11-13T03:16:29.365Z,2.60
2017-11-13T03:18:58.905Z,2.60
2017-11-13T03:21:27.763Z,2.50
2017-11-13T03:23:57.293Z,2.60
2017-11-13T03:26:25.691Z,2.50
2017-11-13T03:28:54.412Z,2.50
2017-11-13T03:31:22.817Z,2.50
2017-11-13T03:33:52.321Z,2.60
2017-11-13T03:36:21.826Z,2.60
2017-11-13T03:38:50.562Z,2.50
2017-11-13T03:41:19.333Z,2.50
2017-11-13T03:43:48.057Z,2.50
2017-11-13T03:46:16.801Z,2.60
2017-11-13T03:48:45.534Z,2.60
2017-11-13T03:51:14.336Z,2.60
2017-11-13T03:53:43.065Z,2.60
2017-11-13T03:56:12.572Z,2.40
2017-11-13T03:58:41.312Z,2.40
2017-11-13T04:01:10.145Z,2.40
2017-11-13T04:03:39.649Z,2.40
2017-11-13T04:06:09.164Z,2.40
2017-11-13T04:08:38.677Z,2.40
2017-11-13T04:11:07.499Z,2.30
2017-11-13T04:13:36.243Z,2.40
2017-11-13T04:16:05.869Z,2.40
2017-11-13T04:18:34.613Z,2.30
2017-11-13T04:21:03.348Z,2.40
2017-11-13T04:23:32.116Z,2.40
2017-11-13T04:26:01.799Z,2.40
2017-11-13T04:28:30.552Z,2.30
2017-11-13T04:30:59.288Z,2.40
2017-11-13T04:33:28.037Z,2.40
2017-11-13T04:35:56.777Z,2.40
2017-11-13T04:38:26.292Z,2.40
2017-11-13T04:40:55.797Z,2.30
2017-11-13T04:43:25.432Z,2.40
2017-11-13T04:45:54.176Z,2.40
2017-11-13T04:48:23.844Z,2.40
2017-11-13T04:50:52.607Z,2.30
2017-11-13T04:53:21.336Z,2.30
2017-11-13T04:55:50.085Z,2.30
2017-11-13T04:58:18.833Z,2.20
2017-11-13T05:00:47.618Z,2.20
2017-11-13T05:03:17.292Z,2.20
2017-11-13T05:05:45.444Z,2.20
2017-11-13T05:08:14.174Z,2.30
2017-11-13T05:10:42.920Z,2.30
2017-11-13T05:13:11.249Z,2.30
2017-11-13T05:15:39.982Z,2.30
2017-11-13T05:18:09.303Z,2.40
2017-11-13T05:20:37.863Z,2.30
2017-11-13T05:23:07.385Z,2.40
2017-11-13T05:25:35.783Z,2.30
2017-11-13T05:28:04.881Z,2.40
2017-11-13T05:30:33.756Z,2.40
2017-11-13T05:33:02.514Z,2.40
2017-11-13T05:35:32.184Z,2.40
2017-11-13T05:38:00.952Z,2.40
2017-11-13T05:40:29.722Z,2.50
2017-11-13T05:42:59.017Z,2.50
2017-11-13T05:45:28.530Z,2.50
2017-11-13T05:47:57.428Z,2.40
2017-11-13T05:50:26.416Z,2.50
2017-11-13T05:52:55.180Z,2.50
2017-11-13T05:55:24.139Z,2.40
2017-11-13T05:57:52.892Z,2.40
2017-11-13T06:00:21.896Z,2.40
2017-11-13T06:02:50.636Z,2.40
2017-11-13T06:05:19.400Z,2.40
2017-11-13T06:07:48.187Z,2.40
2017-11-13T06:10:16.948Z,2.50
2017-11-13T06:12:45.717Z,2.50
2017-11-13T06:15:15.248Z,2.40
2017-11-13T06:17:44.241Z,2.40
2017-11-13T06:20:13.024Z,2.50
2017-11-13T06:22:42.693Z,2.50
2017-11-13T06:25:11.477Z,2.60
2017-11-13T06:27:40.409Z,2.60
2017-11-13T06:30:09.173Z,2.50
2017-11-13T06:32:38.690Z,2.60
2017-11-13T06:35:08.266Z,2.60
2017-11-13T06:37:37.055Z,2.50
2017-11-13T06:40:05.816Z,2.60
2017-11-13T06:42:34.616Z,2.60
2017-11-13T06:45:03.385Z,2.60
2017-11-13T06:47:32.141Z,2.70
2017-11-13T06:50:01.666Z,2.70
2017-11-13T06:52:30.687Z,2.70
2017-11-13T06:54:59.528Z,2.70
2017-11-13T06:57:29.056Z,2.80
2017-11-13T06:59:57.960Z,2.70
2017-11-13T07:02:26.707Z,2.80
2017-11-13T07:04:56.979Z,2.80
2017-11-13T07:07:25.722Z,2.80
2017-11-13T07:09:54.487Z,2.80
2017-11-13T07:12:23.232Z,2.80
2017-11-13T07:14:52.016Z,2.90
2017-11-13T07:17:21.548Z,2.90
2017-11-13T07:19:50.318Z,2.80
2017-11-13T07:22:19.141Z,2.90
2017-11-13T07:24:47.914Z,2.90
2017-11-13T07:27:16.816Z,2.90
2017-11-13T07:29:45.372Z,3.00
2017-11-13T07:32:14.137Z,3.00
2017-11-13T07:34:42.909Z,3.00
2017-11-13T07:37:11.677Z,3.00
2017-11-13T07:39:40.429Z,3.00
2017-11-13T07:42:09.012Z,3.00
2017-11-13T07:44:37.581Z,3.10
2017-11-13T07:47:07.165Z,3.10
2017-11-13T07:49:36.012Z,3.10
2017-11-13T07:52:04.760Z,3.20
2017-11-13T07:54:33.528Z,3.20
2017-11-13T07:57:02.282Z,3.20
2017-11-13T07:59:31.061Z,3.20
2017-11-13T08:01:59.807Z,3.20
2017-11-13T08:04:28.569Z,3.30
2017-11-13T08:06:57.312Z,3.30
2017-11-13T08:09:26.836Z,3.40
2017-11-13T08:11:55.716Z,3.30
2017-11-13T08:14:25.239Z,3.40
2017-11-13T08:16:54.072Z,3.30
2017-11-13T08:19:22.813Z,3.40
2017-11-13T08:21:51.596Z,3.40
2017-11-13T08:24:20.340Z,3.50
2017-11-13T08:26:49.111Z,3.60
2017-11-13T08:29:17.587Z,3.50
2017-11-13T08:31:46.330Z,3.60
2017-11-13T08:34:14.892Z,3.70
2017-11-13T08:36:44.133Z,3.60
2017-11-13T08:39:12.588Z,3.60
2017-11-13T08:41:41.337Z,3.60
2017-11-13T08:44:10.136Z,3.70
2017-11-13T08:46:38.863Z,3.80
2017-11-13T08:49:07.429Z,3.70
2017-11-13T08:51:36.172Z,3.80
2017-11-13T08:54:04.905Z,3.90
2017-11-13T08:56:33.661Z,4.00
2017-11-13T08:59:02.153Z,3.90
2017-11-13T09:01:30.637Z,4.00
2017-11-13T09:03:59.864Z,4.00
2017-11-13T09:06:29.104Z,4.10
2017-11-13T09:08:57.600Z,4.00
2017-11-13T09:11:26.084Z,4.10
2017-11-13T09:13:54.555Z,4.20
2017-11-13T09:16:23.048Z,3.90
2017-11-13T09:18:51.521Z,4.00
2017-11-13T09:21:20.027Z,4.00
2017-11-13T09:23:48.549Z,3.80
2017-11-13T09:26:17.027Z,3.80
2017-11-13T09:28:45.512Z,3.80
2017-11-13T09:31:13.988Z,3.80
2017-11-13T09:33:42.532Z,3.80
2017-11-13T09:36:10.648Z,3.90
2017-11-13T09:38:40.296Z,4.10
2017-11-13T09:41:09.076Z,4.00
2017-11-13T09:43:38.068Z,4.20
2017-11-13T09:46:06.879Z,4.10
2017-11-13T09:48:35.365Z,4.10
2017-11-13T09:51:03.863Z,4.10
2017-11-13T09:53:32.672Z,4.20
2017-11-13T09:56:01.922Z,4.10
2017-11-13T09:58:30.721Z,4.10
2017-11-13T10:00:59.628Z,4.40
2017-11-13T10:03:28.414Z,4.60
2017-11-13T10:05:57.002Z,4.80
2017-11-13T10:08:25.994Z,4.50
2017-11-13T10:10:54.567Z,4.40
2017-11-13T10:13:23.117Z,4.50
2017-11-13T10:15:51.707Z,4.50
2017-11-13T10:18:21.264Z,4.30
2017-11-13T10:20:50.221Z,4.30
2017-11-13T10:23:18.477Z,4.20
2017-11-13T10:25:46.446Z,4.30
2017-11-13T10:28:14.749Z,4.30
2017-11-13T10:30:43.772Z,4.30
2017-11-13T10:33:12.162Z,4.40
2017-11-13T10:35:41.478Z,4.70
2017-11-13T10:38:10.761Z,4.80
2017-11-13T10:40:39.345Z,4.80
2017-11-13T10:43:08.669Z,4.70
2017-11-13T10:45:36.852Z,4.60
2017-11-13T10:48:05.359Z,4.70
2017-11-13T10:50:33.889Z,4.60
2017-11-13T10:53:02.199Z,4.40
2017-11-13T10:55:30.539Z,4.60
2017-11-13T10:57:58.859Z,4.60
2017-11-13T11:00:26.509Z,4.50
2017-11-13T11:02:54.948Z,4.70
2017-11-13T11:05:23.292Z,4.70
2017-11-13T11:07:51.644Z,4.70
2017-11-13T11:10:20.792Z,4.90
2017-11-13T11:12:49.120Z,4.80
2017-11-13T11:15:33.998Z,4.70
2017-11-13T11:18:05.793Z,4.60
2017-11-13T11:20:35.041Z,4.50
2017-11-13T11:23:04.229Z,4.70
2017-11-13T11:25:33.061Z,4.80
2017-11-13T11:28:01.401Z,4.80
2017-11-13T11:30:48.589Z,4.90
2017-11-13T11:33:27.568Z,4.60
2017-11-13T11:36:15.834Z,4.70
2017-11-13T11:38:44.344Z,4.60
2017-11-13T11:41:13.616Z,4.40
2017-11-13T11:43:42.008Z,4.40
2017-11-13T11:46:10.419Z,4.50
2017-11-13T11:48:42.298Z,4.20
2017-11-13T11:51:10.811Z,4.20
2017-11-13T11:53:40.905Z,4.10
2017-11-13T11:56:19.296Z,4.00
2017-11-13T11:58:47.271Z,4.20
2017-11-13T12:01:15.234Z,4.10
2017-11-13T12:03:43.681Z,4.20
2017-11-13T12:06:13.096Z,4.20
2017-11-13T12:08:41.424Z,4.10
2017-11-13T12:11:09.927Z,4.20
2017-11-13T12:13:39.281Z,4.30
2017-11-13T12:16:07.841Z,4.30
2017-11-13T12:18:36.411Z,4.30
2017-11-13T12:21:05.005Z,4.40
2017-11-13T12:23:33.565Z,4.50
2017-11-13T12:26:02.116Z,4.70
2017-11-13T12:28:30.609Z,4.80
2017-11-13T12:30:59.117Z,4.80
2017-11-13T12:33:28.619Z,4.60
2017-11-13T12:35:58.036Z,4.60
2017-11-13T12:38:27.335Z,4.60
2017-11-13T12:40:56.620Z,4.60
2017-11-13T12:43:25.156Z,4.50
2017-11-13T12:45:53.688Z,4.70
2017-11-13T12:48:22.311Z,4.90
2017-11-13T12:50:50.827Z,5.10
2017-11-13T12:53:19.026Z,4.90
2017-11-13T12:55:49.044Z,4.50
2017-11-13T12:58:17.201Z,4.50
2017-11-13T13:00:45.380Z,4.50
2017-11-13T13:03:13.879Z,4.40
2017-11-13T13:05:42.730Z,4.50
2017-11-13T13:08:11.236Z,4.60
2017-11-13T13:10:39.748Z,4.80
2017-11-13T13:13:08.356Z,4.90
2017-11-13T13:15:36.898Z,5.20
2017-11-13T13:18:05.412Z,5.30
2017-11-13T13:20:34.690Z,5.20
2017-11-13T13:23:03.214Z,5.20
2017-11-13T13:25:31.528Z,5.10
2017-11-13T13:28:00.062Z,5.10
2017-11-13T13:30:29.364Z,5.00
2017-11-13T13:32:58.645Z,5.00
2017-11-13T13:35:26.979Z,5.00
2017-11-13T13:37:55.486Z,5.00
2017-11-13T13:40:23.852Z,5.00
2017-11-13T13:42:52.388Z,5.10
2017-11-13T13:45:21.684Z,5.30
2017-11-13T13:47:50.994Z,5.30
2017-11-13T13:50:19.562Z,5.30
2017-11-13T13:52:48.297Z,5.40
2017-11-13T13:55:16.891Z,5.40
2017-11-13T13:57:45.225Z,5.50
2017-11-13T14:00:14.452Z,5.50
2017-11-13T14:02:42.980Z,5.40
2017-11-13T14:05:11.488Z,5.30
2017-11-13T14:07:40.475Z,5.30
2017-11-13T14:10:09.009Z,5.20
2017-11-13T14:12:37.544Z,5.30
2017-11-13T14:15:06.825Z,5.20
2017-11-13T14:17:35.368Z,5.10
2017-11-13T14:20:03.877Z,5.10
2017-11-13T14:22:32.548Z,5.20
2017-11-13T14:25:01.137Z,5.40
2017-11-13T14:27:29.648Z,5.30
2017-11-13T14:29:57.997Z,5.30
2017-11-13T14:32:26.321Z,5.30
2017-11-13T14:34:54.836Z,5.10
2017-11-13T14:37:23.352Z,5.10
2017-11-13T14:39:51.865Z,5.10
2017-11-13T14:42:20.614Z,5.10
2017-11-13T14:44:49.240Z,5.00
2017-11-13T14:47:17.897Z,5.00
2017-11-13T14:49:46.517Z,5.00
2017-11-13T14:52:15.100Z,5.00
2017-11-13T14:54:43.762Z,5.00
2017-11-13T14:57:12.300Z,5.00
2017-11-13T14:59:40.828Z,5.00
2017-11-13T15:02:09.360Z,5.00
2017-11-13T15:04:38.622Z,4.80
2017-11-13T15:07:07.104Z,4.70
2017-11-13T15:09:35.572Z,4.70
2017-11-13T15:12:04.310Z,4.50
2017-11-13T15:14:33.568Z,4.30
2017-11-13T15:17:02.270Z,4.20
2017-11-13T15:19:30.754Z,4.10
2017-11-13T15:21:59.046Z,4.00
2017-11-13T15:24:27.341Z,3.90
2017-11-13T15:26:56.568Z,3.80
2017-11-13T15:29:24.877Z,3.80
2017-11-13T15:31:54.352Z,3.80
2017-11-13T15:34:23.148Z,3.70
2017-11-13T15:36:51.612Z,3.70
2017-11-13T15:39:20.097Z,3.70
2017-11-13T15:41:48.563Z,3.60
2017-11-13T15:44:17.807Z,3.60
2017-11-13T15:46:47.300Z,3.50
2017-11-13T15:49:16.829Z,3.60
2017-11-13T15:51:46.354Z,3.50
2017-11-13T15:54:14.833Z,3.50
2017-11-13T15:56:43.587Z,3.60
2017-11-13T15:59:12.092Z,3.50
2017-11-13T16:01:40.609Z,3.50
2017-11-13T16:04:09.385Z,3.50
2017-11-13T16:06:37.889Z,3.40
2017-11-13T16:09:07.238Z,3.20
2017-11-13T16:11:35.729Z,3.20
2017-11-13T16:14:03.860Z,3.10
2017-11-13T16:16:32.352Z,3.00
2017-11-13T16:19:01.161Z,2.90
2017-11-13T16:21:29.638Z,3.00
2017-11-13T16:23:58.122Z,3.00
2017-11-13T16:26:26.628Z,2.90
2017-11-13T16:28:54.942Z,5.00
2017-11-13T16:31:23.481Z,3.00
2017-11-13T16:33:52.824Z,3.10
2017-11-13T16:36:21.320Z,3.10
2017-11-13T16:38:50.129Z,3.10
2017-11-13T16:41:18.440Z,3.20
2017-11-13T16:43:46.917Z,3.30
2017-11-13T16:46:15.672Z,3.30
2017-11-13T16:48:44.425Z,3.30
2017-11-13T16:51:13.177Z,3.40
2017-11-13T16:53:41.674Z,3.40
2017-11-13T16:56:10.428Z,3.40
2017-11-13T16:58:38.920Z,3.40
2017-11-13T17:01:07.407Z,3.30
2017-11-13T17:03:36.913Z,3.10
2017-11-13T17:06:05.484Z,3.00
2017-11-13T17:08:33.972Z,3.00
2017-11-13T17:11:02.482Z,2.80
2017-11-13T17:13:31.097Z,2.80
2017-11-13T17:15:59.582Z,2.80
2017-11-13T17:18:28.332Z,2.80
2017-11-13T17:20:56.863Z,2.80
2017-11-13T17:23:25.357Z,2.80
2017-11-13T17:25:54.602Z,2.80
2017-11-13T17:28:24.119Z,2.90
2017-11-13T17:30:52.583Z,2.80
2017-11-13T17:33:21.086Z,3.00
2017-11-13T17:35:49.850Z,3.10
2017-11-13T17:38:18.352Z,3.10
2017-11-13T17:40:46.888Z,3.10
2017-11-13T17:43:15.389Z,3.10
2017-11-13T17:45:43.721Z,3.00
2017-11-13T17:48:12.465Z,3.00
2017-11-13T17:50:42.112Z,3.00
2017-11-13T17:53:10.611Z,2.90
2017-11-13T17:55:39.202Z,3.00
2017-11-13T17:58:08.477Z,3.00
2017-11-13T18:00:36.943Z,2.90
2017-11-13T18:03:05.436Z,3.00
2017-11-13T18:05:33.923Z,3.00
2017-11-13T18:08:02.423Z,3.00
2017-11-13T18:10:30.889Z,3.00
2017-11-13T18:12:59.360Z,3.00
2017-11-13T18:15:27.642Z,3.00
2017-11-13T18:17:56.112Z,3.00
2017-11-13T18:20:24.637Z,3.10
2017-11-13T18:22:53.484Z,3.10
2017-11-13T18:25:22.235Z,3.20
2017-11-13T18:27:51.464Z,3.20
2017-11-13T18:30:19.953Z,3.10
2017-11-13T18:32:48.503Z,3.20
2017-11-13T18:35:17.013Z,3.30
2017-11-13T18:37:45.521Z,3.30
2017-11-13T18:40:14.013Z,3.20
2017-11-13T18:42:46.423Z,3.20
2017-11-13T18:45:14.928Z,3.20
2017-11-13T18:47:43.434Z,3.20
2017-11-13T18:50:11.909Z,3.20
2017-11-13T18:52:40.756Z,3.30
2017-11-13T18:55:10.017Z,3.30
2017-11-13T18:57:39.020Z,3.30
2017-11-13T19:00:07.294Z,3.40
2017-11-13T19:02:36.805Z,3.40
2017-11-13T19:05:05.322Z,3.30
2017-11-13T19:07:34.575Z,3.40
2017-11-13T19:10:03.198Z,3.40
2017-11-13T19:12:32.287Z,3.40
2017-11-13T19:15:00.536Z,3.40
2017-11-13T19:17:29.062Z,3.40
2017-11-13T19:19:58.318Z,3.40
2017-11-13T19:22:26.816Z,3.40
2017-11-13T19:24:55.325Z,3.40
2017-11-13T19:27:24.769Z,3.50
2017-11-13T19:29:53.422Z,3.50
2017-11-13T19:32:22.704Z,3.60
2017-11-13T19:34:52.764Z,3.50
2017-11-13T19:37:21.280Z,3.60
2017-11-13T19:39:49.921Z,3.70
2017-11-13T19:42:19.189Z,3.70
2017-11-13T19:44:47.717Z,3.70
2017-11-13T19:47:16.220Z,3.70
2017-11-13T19:49:45.838Z,3.70
2017-11-13T19:52:14.428Z,3.70
2017-11-13T19:54:42.932Z,3.70
2017-11-13T19:57:11.463Z,3.60
2017-11-13T19:59:39.964Z,3.60
2017-11-13T20:02:08.487Z,3.60
2017-11-13T20:04:37.079Z,3.60
2017-11-13T20:07:06.500Z,3.50
2017-11-13T20:09:35.306Z,3.40
2017-11-13T20:12:04.215Z,3.40
2017-11-13T20:14:33.264Z,3.40
2017-11-13T20:17:02.048Z,3.30
2017-11-13T20:19:30.819Z,3.40
2017-11-13T20:21:59.911Z,3.40
2017-11-13T20:24:28.951Z,3.40
2017-11-13T20:26:57.629Z,3.20
2017-11-13T20:29:26.207Z,3.20
2017-11-13T20:31:55.520Z,3.00
2017-11-13T20:34:24.352Z,3.00
2017-11-13T20:36:53.268Z,3.00
2017-11-13T20:39:22.065Z,2.80
2017-11-13T20:41:50.576Z,2.80
2017-11-13T20:44:19.871Z,2.80
2017-11-13T20:46:49.181Z,2.90
2017-11-13T20:49:17.832Z,2.90
2017-11-13T20:51:46.411Z,2.90
2017-11-13T20:54:14.872Z,2.90
2017-11-13T20:56:43.396Z,2.90
2017-11-13T20:59:12.159Z,2.90
2017-11-13T21:01:40.747Z,2.90
2017-11-13T21:04:09.544Z,2.80
2017-11-13T21:06:38.043Z,2.70
2017-11-13T21:09:06.827Z,2.60
2017-11-13T21:11:35.611Z,2.60
2017-11-13T21:14:04.620Z,2.50
2017-11-13T21:16:33.438Z,2.50
2017-11-13T21:19:02.200Z,2.40
2017-11-13T21:21:30.976Z,2.20
2017-11-13T21:23:59.785Z,2.10
2017-11-13T21:26:28.559Z,2.00
2017-11-13T21:28:57.304Z,2.00
2017-11-13T21:31:26.832Z,1.90
2017-11-13T21:33:55.651Z,1.80
2017-11-13T21:36:24.412Z,1.90
2017-11-13T21:38:53.210Z,1.90
2017-11-13T21:41:22.227Z,1.80
2017-11-13T21:43:50.990Z,1.80
2017-11-13T21:46:19.770Z,1.80
2017-11-13T21:48:48.582Z,1.80
2017-11-13T21:51:17.371Z,1.80
2017-11-13T21:53:46.118Z,1.80
2017-11-13T21:56:14.875Z,1.80
2017-11-13T21:58:43.638Z,1.90
2017-11-13T22:01:12.425Z,1.80
2017-11-13T22:03:41.194Z,1.70
2017-11-13T22:06:09.976Z,1.80
2017-11-13T22:08:39.507Z,1.70
2017-11-13T22:11:08.005Z,1.70
2017-11-13T22:13:36.776Z,1.80
2017-11-13T22:16:05.248Z,1.80
2017-11-13T22:18:33.912Z,1.70
2017-11-13T22:21:03.260Z,1.60
2017-11-13T22:23:32.112Z,1.60
2017-11-13T22:26:01.663Z,1.50
2017-11-13T22:28:30.467Z,1.50
2017-11-13T22:30:59.240Z,1.40
2017-11-13T22:33:27.327Z,1.40
2017-11-13T22:35:55.916Z,1.30
2017-11-13T22:38:24.505Z,1.40
2017-11-13T22:40:53.088Z,1.40
2017-11-13T22:43:22.669Z,1.60
2017-11-13T22:45:51.364Z,1.50
2017-11-13T22:48:20.129Z,1.50
2017-11-13T22:50:48.900Z,1.50
2017-11-13T22:53:17.709Z,1.40
2017-11-13T22:55:46.488Z,1.40
2017-11-13T22:58:15.263Z,1.50
2017-11-13T23:00:44.792Z,1.40
2017-11-13T23:03:13.538Z,1.40
2017-11-13T23:05:42.356Z,1.40
2017-11-13T23:08:11.361Z,1.50
2017-11-13T23:10:40.139Z,1.60
2017-11-13T23:13:08.897Z,1.60
2017-11-13T23:15:37.666Z,1.60
2017-11-13T23:18:06.423Z,1.50
2017-11-13T23:20:35.196Z,1.40
2017-11-13T23:23:04.740Z,1.50
2017-11-13T23:25:33.500Z,1.50
2017-11-13T23:28:02.262Z,1.50
2017-11-13T23:30:31.028Z,1.50
2017-11-13T23:32:59.815Z,1.50
2017-11-13T23:35:28.677Z,1.50
2017-11-13T23:37:57.453Z,1.60
2017-11-13T23:40:26.973Z,1.50
2017-11-13T23:42:55.744Z,1.40
2017-11-13T23:45:24.487Z,1.50
2017-11-13T23:47:53.253Z,1.50
2017-11-13T23:50:22.648Z,1.50
2017-11-13T23:52:51.419Z,1.40
2017-11-13T23:55:20.743Z,1.30
2017-11-13T23:57:49.500Z,1.30
